Time;durP1;ratioP1;P1;durP2;ratioP2;P2;SDS_P1;SDS_P2;PMS_P1;PMS_P2;Temp;Humidity;BMP_temperature;BMP_pressure;BME280_temperature;BME280_humidity;BME280_pressure;Samples;Min_cycle;Max_cycle;Signal;HPM_P1;HPM_P2
2023/01/28 00:01:27;;;;;;;4.15;2.10;;;;;;;2.70;90.61;102590.28;5070298;28;20033;-72
2023/01/28 00:03:52;;;;;;;7.50;2.00;;;;;;;2.84;90.35;102593.22;5040521;28;20039;-72
2023/01/28 00:06:18;;;;;;;7.70;1.90;;;;;;;2.87;90.06;102587.78;5055529;28;20036;-74
2023/01/28 00:08:43;;;;;;;7.47;1.90;;;;;;;2.84;89.40;102589.69;5066561;28;20030;-72
2023/01/28 00:11:11;;;;;;;12.18;2.28;;;;;;;2.95;89.65;102596.31;5047389;28;20032;-73
2023/01/28 00:13:37;;;;;;;9.65;2.40;;;;;;;3.05;89.62;102595.91;5046529;28;20074;-73
2023/01/28 00:16:04;;;;;;;12.55;2.00;;;;;;;2.92;89.71;102593.75;5058471;28;20033;-74
2023/01/28 00:18:31;;;;;;;8.30;1.92;;;;;;;2.84;89.44;102598.59;5056469;28;20101;-74
2023/01/28 00:21:00;;;;;;;8.45;2.00;;;;;;;2.80;88.49;102596.97;5043376;28;20523;-74
2023/01/28 00:23:32;;;;;;;8.95;1.98;;;;;;;2.81;88.12;102604.09;5036892;28;20029;-74
2023/01/28 00:25:59;;;;;;;4.50;1.83;;;;;;;2.78;89.75;102601.53;5039343;28;20078;-73
2023/01/28 00:28:24;;;;;;;10.02;2.08;;;;;;;2.70;90.18;102611.69;5074160;28;20020;-74
2023/01/28 00:30:50;;;;;;;4.47;1.50;;;;;;;2.78;90.21;102606.88;5072406;28;20489;-73
2023/01/28 00:33:15;;;;;;;6.10;1.90;;;;;;;2.81;90.61;102604.09;5052449;28;20025;-73
2023/01/28 00:35:41;;;;;;;9.10;2.00;;;;;;;3.03;89.58;102613.84;5051556;28;20033;-73
2023/01/28 00:38:07;;;;;;;4.25;1.85;;;;;;;3.07;89.82;102610.13;5048970;28;20028;-73
2023/01/28 00:40:33;;;;;;;3.65;1.75;;;;;;;3.03;89.93;102598.66;5063445;28;20035;-74
2023/01/28 00:42:58;;;;;;;5.35;1.80;;;;;;;3.06;89.83;102592.28;5055829;28;20021;-73
2023/01/28 00:45:24;;;;;;;8.80;2.05;;;;;;;2.86;90.63;102596.72;5039328;28;20021;-74
2023/01/28 00:47:49;;;;;;;8.65;2.30;;;;;;;2.68;90.64;102597.53;5046598;28;20020;-73
2023/01/28 00:50:15;;;;;;;3.22;1.48;;;;;;;2.62;89.56;102597.78;5055571;28;20380;-74
2023/01/28 00:52:40;;;;;;;5.03;1.73;;;;;;;2.60;90.37;102604.97;5053487;28;20029;-74
2023/01/28 00:55:06;;;;;;;5.47;1.40;;;;;;;2.76;88.98;102595.38;5058710;28;20070;-73
2023/01/28 00:57:32;;;;;;;8.30;1.45;;;;;;;2.81;88.46;102597.88;5054045;28;20052;-74
2023/01/28 00:59:58;;;;;;;9.40;1.60;;;;;;;2.75;88.13;102593.66;5039085;28;20043;-75
2023/01/28 01:02:24;;;;;;;5.40;1.50;;;;;;;2.76;89.20;102595.38;5055128;28;20493;-73
2023/01/28 01:04:58;;;;;;;6.68;1.65;;;;;;;2.31;89.87;102601.72;5051431;28;20029;-74
2023/01/28 01:07:42;;;;;;;5.43;1.63;;;;;;;2.32;90.28;102592.75;5072509;28;20068;-74
2023/01/28 01:10:17;;;;;;;2.70;1.60;;;;;;;2.49;90.38;102592.06;5067188;28;20050;-74
2023/01/28 01:12:45;;;;;;;5.00;1.55;;;;;;;2.59;88.25;102597.88;5063853;28;20037;-74
2023/01/28 01:15:10;;;;;;;3.95;1.38;;;;;;;2.55;88.35;102596.28;5054684;28;20021;-74
2023/01/28 01:17:37;;;;;;;4.95;1.50;;;;;;;2.78;87.86;102598.84;5046146;28;20097;-74
2023/01/28 01:20:05;;;;;;;3.88;1.58;;;;;;;2.89;87.23;102599.25;5046667;28;20025;-74
2023/01/28 01:22:36;;;;;;;5.70;1.60;;;;;;;2.87;88.38;102603.81;5072420;28;20105;-74
2023/01/28 01:25:03;;;;;;;7.38;2.00;;;;;;;2.79;87.19;102599.72;5048424;28;20028;-74
2023/01/28 01:27:30;;;;;;;5.47;1.55;;;;;;;2.94;87.50;102594.59;5037890;28;20029;-74
2023/01/28 01:29:55;;;;;;;5.88;1.88;;;;;;;2.81;87.71;102597.88;5043593;28;20024;-74
2023/01/28 01:32:21;;;;;;;4.75;1.55;;;;;;;2.77;86.81;102591.75;5049203;28;20170;-74
2023/01/28 01:34:47;;;;;;;8.82;1.73;;;;;;;2.75;85.94;102599.00;5065096;28;20040;-74
2023/01/28 01:37:13;;;;;;;12.75;2.40;;;;;;;2.52;87.47;102596.41;5048312;28;20103;-74
2023/01/28 01:39:38;;;;;;;5.30;1.40;;;;;;;2.61;86.41;102596.03;5072609;28;20121;-74
2023/01/28 01:42:04;;;;;;;4.20;1.52;;;;;;;2.61;87.13;102599.59;5067237;28;20036;-74
2023/01/28 01:44:52;;;;;;;5.13;1.60;;;;;;;2.51;87.09;102590.19;5051040;28;20023;-74
2023/01/28 01:47:22;;;;;;;5.43;1.83;;;;;;;2.69;85.79;102584.06;5065915;28;20035;-73
2023/01/28 01:49:48;;;;;;;9.07;1.92;;;;;;;2.73;85.43;102584.78;5043562;28;20056;-73
2023/01/28 01:52:19;;;;;;;2.92;1.30;;;;;;;2.57;86.71;102583.72;5047982;28;20036;-73
2023/01/28 01:54:49;;;;;;;4.88;1.45;;;;;;;2.67;87.09;102579.72;5046193;28;20051;-72
2023/01/28 01:57:20;;;;;;;2.75;1.30;;;;;;;2.75;88.00;102598.13;5044977;28;20040;-73
2023/01/28 01:59:46;;;;;;;2.97;1.30;;;;;;;2.91;87.49;102594.72;5054030;28;20029;-74
2023/01/28 02:02:12;;;;;;;8.40;2.22;;;;;;;2.84;87.87;102582.53;5048140;28;20636;-74
2023/01/28 02:04:43;;;;;;;8.32;2.00;;;;;;;2.82;88.06;102587.09;5045439;28;20025;-74
2023/01/28 02:07:11;;;;;;;5.13;1.65;;;;;;;2.69;88.04;102599.25;5053134;28;20024;-74
2023/01/28 02:09:37;;;;;;;3.35;1.40;;;;;;;2.75;88.49;102593.66;5070952;28;20024;-74
2023/01/28 02:12:34;;;;;;;3.33;1.42;;;;;;;2.71;89.44;102586.69;5052697;28;20033;-74
2023/01/28 02:15:04;;;;;;;3.95;1.27;;;;;;;2.36;88.27;102585.50;5072569;28;20016;-74
2023/01/28 02:17:30;;;;;;;4.55;1.20;;;;;;;2.32;88.88;102579.38;5053077;28;20055;-75
2023/01/28 02:20:06;;;;;;;9.25;1.27;;;;;;;2.35;87.93;102595.31;5053952;28;20380;-75
2023/01/28 02:22:49;;;;;;;4.88;1.38;;;;;;;2.52;86.49;102591.06;5053061;28;20036;-74
2023/01/28 02:25:21;;;;;;;5.45;1.92;;;;;;;2.52;87.82;102583.03;5039453;28;20029;-74
2023/01/28 02:27:55;;;;;;;3.78;1.52;;;;;;;2.61;88.34;102580.00;5052301;28;20028;-74
2023/01/28 02:30:28;;;;;;;5.18;1.60;;;;;;;2.60;88.87;102583.56;5044940;28;20084;-74
2023/01/28 02:33:04;;;;;;;4.82;1.98;;;;;;;2.58;88.05;102586.31;5052158;28;20040;-72
2023/01/28 02:35:50;;;;;;;7.22;2.28;;;;;;;2.61;87.55;102582.66;5047847;28;20417;-72
2023/01/28 02:38:22;;;;;;;7.18;1.85;;;;;;;2.56;87.40;102584.66;5053305;28;20028;-74
2023/01/28 02:41:01;;;;;;;2.55;1.35;;;;;;;2.53;88.10;102576.75;5052910;28;20025;-73
2023/01/28 02:43:37;;;;;;;8.20;1.80;;;;;;;2.68;87.61;102576.13;5046030;28;20017;-73
2023/01/28 02:49:07;;;;;;;5.40;1.88;;;;;;;2.50;91.11;102576.91;5067391;28;20071;-73
2023/01/28 02:51:42;;;;;;;4.13;1.85;;;;;;;2.64;89.77;102580.72;5048890;28;20056;-72
2023/01/28 02:54:34;;;;;;;4.50;1.60;;;;;;;2.61;89.08;102580.00;5053523;28;20017;-73
2023/01/28 02:57:23;;;;;;;7.13;1.83;;;;;;;2.65;89.38;102581.59;5053924;28;20085;-73
2023/01/28 02:59:49;;;;;;;3.20;1.40;;;;;;;2.38;89.93;102579.13;5070664;28;20021;-73
2023/01/28 03:02:19;;;;;;;6.55;1.85;;;;;;;2.35;90.41;102584.63;5052142;28;20040;-72
2023/01/28 03:05:06;;;;;;;8.93;2.30;;;;;;;2.31;90.62;102577.66;5045730;28;20024;-74
2023/01/28 03:07:34;;;;;;;6.13;1.60;;;;;;;2.45;90.02;102585.09;5040075;28;20032;-74
2023/01/28 03:10:05;;;;;;;5.72;1.80;;;;;;;2.41;91.22;102584.38;5049476;28;20108;-73
2023/01/28 03:37:51;;;;;;;5.75;2.20;;;;;;;2.22;90.74;102570.03;5003784;28;20104;-75
2023/01/28 03:40:17;;;;;;;6.95;2.28;;;;;;;2.42;90.51;102574.56;5000909;28;20025;-75
2023/01/28 03:42:43;;;;;;;6.90;2.15;;;;;;;2.47;91.35;102582.34;5005855;28;20048;-75
2023/01/28 03:45:09;;;;;;;7.13;2.20;;;;;;;2.55;91.62;102574.91;5013397;28;20021;-75
2023/01/28 03:47:34;;;;;;;12.68;2.38;;;;;;;2.48;91.39;102573.38;5002571;28;20049;-75
2023/01/28 03:49:59;;;;;;;8.98;2.22;;;;;;;2.39;91.51;102580.88;4988684;28;20045;-75
2023/01/28 03:52:29;;;;;;;3.95;1.67;;;;;;;2.37;90.66;102572.06;4995180;28;20034;-75
2023/01/28 03:54:55;;;;;;;4.47;2.00;;;;;;;2.38;90.66;102579.13;4997796;28;20415;-75
2023/01/28 03:57:23;;;;;;;5.85;1.80;;;;;;;2.52;90.57;102570.53;5025413;28;20034;-75
2023/01/28 03:59:49;;;;;;;4.78;2.05;;;;;;;2.51;90.90;102578.63;5012943;28;20022;-75
2023/01/28 04:02:15;;;;;;;4.95;2.05;;;;;;;2.50;91.40;102576.91;5012856;28;20629;-75
2023/01/28 04:04:41;;;;;;;10.82;2.42;;;;;;;2.49;92.26;102583.19;5028192;28;20109;-76
2023/01/28 04:07:09;;;;;;;7.05;2.03;;;;;;;2.31;91.10;102572.31;4991785;28;20169;-75
2023/01/28 04:09:36;;;;;;;3.30;1.63;;;;;;;2.29;91.35;102579.53;4982190;28;20029;-75
2023/01/28 04:12:01;;;;;;;9.88;2.40;;;;;;;2.24;91.48;102576.16;5024350;28;20072;-75
2023/01/28 04:14:27;;;;;;;4.63;1.42;;;;;;;2.22;89.59;102578.03;5012096;28;20363;-75
2023/01/28 04:16:55;;;;;;;6.95;1.65;;;;;;;2.29;88.68;102579.53;4986425;28;20042;-75
2023/01/28 04:19:21;;;;;;;7.07;1.65;;;;;;;2.32;87.73;102579.38;5011450;28;20026;-75
2023/01/28 04:21:48;;;;;;;5.25;1.85;;;;;;;2.07;88.87;102573.31;4994364;28;20049;-75
2023/01/28 04:24:13;;;;;;;5.00;1.70;;;;;;;2.12;89.70;102576.66;4995638;28;20057;-75
2023/01/28 04:26:39;;;;;;;5.20;1.77;;;;;;;2.22;88.82;102562.00;4995492;28;20069;-75
2023/01/28 04:29:05;;;;;;;4.15;1.58;;;;;;;2.16;89.52;102556.91;4995511;28;20037;-75
2023/01/28 04:31:31;;;;;;;6.00;1.83;;;;;;;2.17;89.34;102564.00;4986595;28;20121;-75
2023/01/28 04:33:56;;;;;;;5.47;1.85;;;;;;;2.02;89.21;102569.94;5020126;28;20299;-76
2023/01/28 04:36:23;;;;;;;2.90;1.83;;;;;;;1.93;89.28;102570.31;4984793;28;20560;-75
2023/01/28 04:38:48;;;;;;;3.78;1.42;;;;;;;2.03;86.79;102561.00;5028073;28;20061;-75
2023/01/28 04:41:14;;;;;;;3.47;2.15;;;;;;;2.12;87.53;102571.31;5011755;28;20065;-74
2023/01/28 04:43:39;;;;;;;9.98;2.05;;;;;;;2.04;88.41;102573.44;4995540;28;20033;-75
2023/01/28 04:46:05;;;;;;;5.40;1.90;;;;;;;1.99;88.73;102570.06;4997798;28;20079;-74
2023/01/28 04:48:30;;;;;;;4.85;2.55;;;;;;;1.97;89.70;102569.28;5000132;28;20116;-75
2023/01/28 04:50:56;;;;;;;5.80;1.95;;;;;;;2.11;89.82;102569.59;5003601;28;20073;-75
2023/01/28 04:53:22;;;;;;;6.20;2.10;;;;;;;2.07;89.78;102575.97;4995738;28;20383;-75
2023/01/28 04:55:48;;;;;;;8.85;2.50;;;;;;;2.04;90.24;102573.44;4998342;28;20514;-75
2023/01/28 04:58:13;;;;;;;6.00;2.42;;;;;;;2.11;90.33;102574.94;4987971;28;20026;-74
2023/01/28 05:00:39;;;;;;;6.63;2.53;;;;;;;2.22;90.29;102583.38;4994534;28;20034;-75
2023/01/28 05:03:04;;;;;;;5.18;2.58;;;;;;;1.95;91.01;102579.13;4994886;28;20197;-75
2023/01/28 05:05:29;;;;;;;10.50;2.90;;;;;;;1.68;91.73;102581.94;4993543;28;20026;-75
2023/01/28 05:07:56;;;;;;;15.07;4.80;;;;;;;1.69;93.12;102577.47;4986771;28;20471;-76
2023/01/28 05:10:23;;;;;;;9.77;3.63;;;;;;;1.80;93.00;102576.13;4995482;28;20029;-75
2023/01/28 05:12:48;;;;;;;11.10;3.47;;;;;;;1.77;93.02;102570.94;5028117;28;20048;-74
2023/01/28 05:15:16;;;;;;;6.87;3.60;;;;;;;1.69;93.54;102572.13;5029667;28;20025;-74
2023/01/28 05:17:42;;;;;;;8.25;3.33;;;;;;;1.75;93.81;102556.75;4994337;28;20046;-75
2023/01/28 05:20:08;;;;;;;9.23;3.53;;;;;;;1.72;93.62;102559.56;4994497;28;20037;-75
2023/01/28 05:22:33;;;;;;;15.33;3.37;;;;;;;1.64;94.47;102559.00;4997556;28;20402;-75
2023/01/28 05:25:02;;;;;;;12.20;3.47;;;;;;;1.58;94.69;102553.88;4994405;28;20021;-74
2023/01/28 05:27:29;;;;;;;7.55;3.88;;;;;;;1.48;95.07;102557.81;4993335;28;20048;-76
2023/01/28 05:29:55;;;;;;;7.47;3.53;;;;;;;1.47;95.08;102545.41;4993915;28;20137;-75
2023/01/28 05:32:20;;;;;;;5.82;3.03;;;;;;;1.45;95.46;102548.16;4993207;28;20116;-75
2023/01/28 05:34:45;;;;;;;9.98;4.03;;;;;;;1.38;96.46;102545.78;4994345;28;20029;-75
2023/01/28 05:37:11;;;;;;;11.82;3.45;;;;;;;1.43;95.61;102538.44;4993621;28;20042;-75
2023/01/28 05:39:36;;;;;;;8.93;3.22;;;;;;;1.42;95.68;102531.38;5011069;28;20053;-75
2023/01/28 05:42:02;;;;;;;13.90;4.00;;;;;;;1.24;96.13;102533.81;5019257;28;20033;-75
2023/01/28 05:44:27;;;;;;;9.82;3.80;;;;;;;1.22;96.34;102538.31;5020755;28;20108;-75
2023/01/28 05:46:52;;;;;;;18.67;3.80;;;;;;;1.20;97.08;102552.66;4992225;28;20133;-76
2023/01/28 05:49:18;;;;;;;10.55;3.58;;;;;;;1.04;97.22;102547.00;5016123;28;20045;-75
2023/01/28 05:51:43;;;;;;;11.37;4.30;;;;;;;0.89;98.53;102540.44;5023444;28;20069;-76
2023/01/28 05:54:09;;;;;;;7.77;3.63;;;;;;;0.68;100.00;102544.72;4987485;28;20014;-75
2023/01/28 05:56:35;;;;;;;15.10;4.67;;;;;;;0.81;99.91;102546.03;5000282;28;20040;-75
2023/01/28 05:59:02;;;;;;;10.90;4.37;;;;;;;0.80;99.73;102544.31;5011658;28;20026;-75
2023/01/28 06:01:28;;;;;;;10.73;3.95;;;;;;;0.89;99.03;102542.22;4993753;28;20022;-76
2023/01/28 06:03:53;;;;;;;7.20;3.53;;;;;;;0.82;98.76;102542.44;4992732;28;20071;-75
2023/01/28 06:06:19;;;;;;;11.77;4.00;;;;;;;0.76;99.02;102540.00;4992133;28;20580;-75
2023/01/28 06:08:44;;;;;;;12.07;4.13;;;;;;;0.51;100.00;102541.75;4985180;28;20026;-76
2023/01/28 06:11:10;;;;;;;15.37;4.77;;;;;;;0.37;100.00;102541.38;5017452;28;20030;-75
2023/01/28 06:13:36;;;;;;;8.00;4.20;;;;;;;0.35;100.00;102545.88;5010184;28;20225;-75
2023/01/28 06:16:02;;;;;;;11.97;4.27;;;;;;;0.36;100.00;102547.63;4995325;28;20036;-75
2023/01/28 06:18:28;;;;;;;8.63;4.37;;;;;;;0.43;100.00;102538.50;5021237;28;20025;-75
2023/01/28 06:20:53;;;;;;;12.83;4.63;;;;;;;0.26;100.00;102537.28;5019703;28;20033;-75
2023/01/28 06:23:18;;;;;;;11.53;4.33;;;;;;;0.44;100.00;102534.91;5000409;28;20053;-76
2023/01/28 06:25:44;;;;;;;17.50;5.47;;;;;;;0.34;100.00;102528.16;5000330;28;20039;-75
2023/01/28 06:28:09;;;;;;;12.70;4.33;;;;;;;0.42;100.00;102528.78;5020998;28;20047;-75
2023/01/28 06:30:34;;;;;;;11.20;5.23;;;;;;;0.34;100.00;102533.50;5002342;28;20104;-75
2023/01/28 06:33:00;;;;;;;11.27;5.20;;;;;;;0.23;100.00;102516.06;4992821;28;20034;-76
2023/01/28 06:35:26;;;;;;;8.87;4.53;;;;;;;0.37;100.00;102520.06;4985651;28;20018;-76
2023/01/28 06:37:53;;;;;;;10.73;4.33;;;;;;;0.42;100.00;102536.75;4992536;28;20036;-75
2023/01/28 06:40:19;;;;;;;10.83;4.73;;;;;;;0.46;100.00;102533.94;4989121;28;20033;-75
2023/01/28 06:42:44;;;;;;;14.67;5.40;;;;;;;0.31;100.00;102528.25;5012878;28;20042;-75
2023/01/28 06:45:10;;;;;;;10.17;4.23;;;;;;;0.04;100.00;102514.94;4993150;28;20041;-76
2023/01/28 06:47:38;;;;;;;9.70;5.07;;;;;;;0.17;100.00;102516.28;4991760;28;20042;-75
2023/01/28 06:50:04;;;;;;;10.17;5.40;;;;;;;0.20;100.00;102529.50;4986277;28;20030;-75
2023/01/28 06:52:29;;;;;;;11.63;5.23;;;;;;;0.08;100.00;102532.56;5006584;28;20025;-75
2023/01/28 06:54:54;;;;;;;11.30;5.37;;;;;;;0.05;100.00;102537.97;5009110;28;20029;-76
2023/01/28 06:57:20;;;;;;;22.77;4.83;;;;;;;0.04;100.00;102538.91;4988055;28;20026;-74
2023/01/28 06:59:45;;;;;;;12.90;5.20;;;;;;;-0.12;100.00;102545.66;4988234;28;20026;-73
2023/01/28 07:02:10;;;;;;;12.50;5.53;;;;;;;-0.16;100.00;102549.31;5009650;28;20041;-75
2023/01/28 07:04:36;;;;;;;17.57;5.67;;;;;;;-0.10;100.00;102554.44;4993579;28;20026;-73
2023/01/28 07:07:02;;;;;;;15.03;6.27;;;;;;;-0.24;100.00;102572.66;4990299;28;20045;-73
2023/01/28 07:09:27;;;;;;;12.77;6.30;;;;;;;-0.20;100.00;102579.59;5015789;28;20099;-73
2023/01/28 07:11:52;;;;;;;14.67;6.63;;;;;;;0.01;100.00;102588.75;4995009;28;20092;-73
2023/01/28 07:14:18;;;;;;;14.43;6.87;;;;;;;0.03;100.00;102587.75;5004550;28;20029;-73
2023/01/28 07:16:43;;;;;;;12.80;6.73;;;;;;;0.03;100.00;102602.88;4996604;28;20034;-73
2023/01/28 07:19:08;;;;;;;14.37;7.60;;;;;;;-0.07;100.00;102607.59;4991910;28;20060;-73
2023/01/28 07:21:34;;;;;;;18.03;7.57;;;;;;;-0.09;100.00;102604.13;4991415;28;20034;-74
2023/01/28 07:23:59;;;;;;;17.87;8.70;;;;;;;-0.06;100.00;102609.38;5001870;28;20057;-73
2023/01/28 07:26:24;;;;;;;12.50;7.37;;;;;;;-0.15;100.00;102609.63;5000622;28;20050;-73
2023/01/28 07:28:50;;;;;;;13.97;7.43;;;;;;;-0.10;100.00;102618.34;5018443;28;20026;-73
2023/01/28 07:31:15;;;;;;;16.57;7.43;;;;;;;0.00;100.00;102619.81;4991733;28;20041;-73
2023/01/28 07:33:40;;;;;;;22.20;8.57;;;;;;;-0.05;100.00;102605.78;5008827;28;20030;-73
2023/01/28 07:36:06;;;;;;;20.23;7.73;;;;;;;-0.11;100.00;102613.94;4993722;28;20045;-74
2023/01/28 07:38:31;;;;;;;14.43;8.30;;;;;;;0.02;100.00;102612.66;4979614;28;20026;-73
2023/01/28 07:40:57;;;;;;;19.03;8.37;;;;;;;-0.13;100.00;102602.44;5005801;28;20057;-73
2023/01/28 07:43:22;;;;;;;15.33;8.20;;;;;;;-0.18;100.00;102607.06;5006561;28;20017;-73
2023/01/28 07:45:47;;;;;;;23.80;9.73;;;;;;;-0.03;100.00;102625.22;4991655;28;20041;-73
2023/01/28 07:48:13;;;;;;;22.43;8.83;;;;;;;0.00;100.00;102625.16;4989614;28;20042;-76
2023/01/28 07:50:39;;;;;;;21.07;11.57;;;;;;;-0.22;100.00;102618.72;5017885;28;20476;-76
2023/01/28 07:53:07;;;;;;;28.37;14.93;;;;;;;-0.14;100.00;102611.38;4997263;28;20192;-73
2023/01/28 07:55:34;;;;;;;25.27;11.10;;;;;;;-0.02;100.00;102605.66;4991758;28;20087;-74
2023/01/28 07:58:01;;;;;;;23.90;11.73;;;;;;;-0.21;100.00;102609.81;5001071;28;20033;-74
2023/01/28 08:00:29;;;;;;;26.47;11.67;;;;;;;-0.24;100.00;102609.91;4991385;28;20041;-76
2023/01/28 08:02:56;;;;;;;20.67;11.27;;;;;;;-0.25;100.00;102616.16;4984361;28;20058;-74
2023/01/28 08:05:22;;;;;;;28.60;10.93;;;;;;;-0.24;100.00;102625.88;4997756;28;20379;-74
2023/01/28 08:07:48;;;;;;;34.10;12.20;;;;;;;-0.32;100.00;102632.31;4999853;28;20112;-74
2023/01/28 08:10:14;;;;;;;25.73;11.77;;;;;;;-0.14;100.00;102632.66;5019029;28;20093;-75
2023/01/28 08:12:39;;;;;;;20.07;11.80;;;;;;;-0.06;100.00;102636.00;4995631;28;20065;-74
2023/01/28 08:15:06;;;;;;;20.50;12.07;;;;;;;-0.16;100.00;102639.84;5002577;28;20025;-74
2023/01/28 08:17:31;;;;;;;26.90;12.33;;;;;;;-0.18;100.00;102636.34;5009577;28;20031;-74
2023/01/28 08:19:57;;;;;;;22.57;12.13;;;;;;;-0.37;100.00;102626.25;4984378;28;20041;-75
2023/01/28 08:22:24;;;;;;;20.67;12.00;;;;;;;-0.35;100.00;102629.72;5009439;28;20112;-75
2023/01/28 08:24:50;;;;;;;25.57;13.33;;;;;;;-0.37;100.00;102631.56;4999982;28;20036;-74
2023/01/28 08:27:15;;;;;;;36.30;14.27;;;;;;;-0.50;100.00;102635.50;5012161;28;20046;-75
2023/01/28 08:29:42;;;;;;;33.90;13.70;;;;;;;-0.33;100.00;102622.59;4995540;28;20121;-74
2023/01/28 08:32:08;;;;;;;21.33;13.90;;;;;;;-0.16;100.00;102623.84;4993603;28;20115;-74
2023/01/28 08:34:33;;;;;;;31.43;13.73;;;;;;;-0.37;100.00;102638.69;4995502;28;20076;-74
2023/01/28 08:36:59;;;;;;;23.43;13.67;;;;;;;-0.06;100.00;102641.31;5010817;28;20042;-74
2023/01/28 08:39:24;;;;;;;29.23;13.73;;;;;;;-0.03;100.00;102630.56;4994852;28;20022;-74
2023/01/28 08:41:50;;;;;;;23.17;13.63;;;;;;;-0.31;100.00;102615.41;5019077;28;20117;-75
2023/01/28 08:44:15;;;;;;;22.63;13.70;;;;;;;-0.12;100.00;102625.53;5002564;28;20371;-74
2023/01/28 08:46:41;;;;;;;23.63;11.90;;;;;;;0.09;100.00;102640.84;4995378;28;20042;-74
2023/01/28 08:49:06;;;;;;;24.17;13.80;;;;;;;-0.01;100.00;102636.69;4996580;28;20108;-75
2023/01/28 08:51:32;;;;;;;25.43;13.50;;;;;;;0.01;100.00;102632.22;5020275;28;20033;-70
2023/01/28 08:53:57;;;;;;;23.80;13.27;;;;;;;-0.10;100.00;102644.97;4994360;28;20045;-70
2023/01/28 08:56:22;;;;;;;26.60;12.87;;;;;;;-0.20;100.00;102654.13;4992931;28;20030;-70
2023/01/28 08:58:48;;;;;;;21.77;12.93;;;;;;;-0.11;100.00;102643.22;4990650;28;20117;-71
2023/01/28 09:01:13;;;;;;;22.43;12.07;;;;;;;-0.06;100.00;102657.28;4991033;28;20034;-70
2023/01/28 09:03:38;;;;;;;23.47;12.73;;;;;;;0.03;100.00;102672.97;4994090;28;20018;-71
2023/01/28 09:06:04;;;;;;;25.07;12.37;;;;;;;0.06;100.00;102664.88;4996607;28;20033;-70
2023/01/28 09:08:30;;;;;;;22.17;12.37;;;;;;;0.21;100.00;102667.09;4994424;28;20108;-70
2023/01/28 09:10:56;;;;;;;25.13;11.87;;;;;;;0.09;100.00;102662.13;4993198;28;20049;-70
2023/01/28 09:13:22;;;;;;;21.23;12.00;;;;;;;0.48;100.00;102664.47;4993573;28;20025;-70
2023/01/28 09:15:48;;;;;;;19.33;11.03;;;;;;;0.45;100.00;102675.22;4992727;28;20038;-70
2023/01/28 09:18:13;;;;;;;17.93;11.10;;;;;;;0.55;100.00;102682.00;4992706;28;20163;-70
2023/01/28 09:20:39;;;;;;;19.80;10.83;;;;;;;0.87;100.00;102688.09;4991925;28;20028;-70
2023/01/28 09:23:06;;;;;;;17.33;11.37;;;;;;;0.89;100.00;102696.91;4993531;28;20060;-70
2023/01/28 09:25:32;;;;;;;24.17;11.07;;;;;;;1.21;100.00;102694.00;5006382;28;20582;-70
2023/01/28 09:27:59;;;;;;;20.43;10.87;;;;;;;1.03;98.94;102684.81;5020507;23;20104;-73
2023/01/28 09:30:25;;;;;;;19.37;10.97;;;;;;;1.02;99.09;102692.88;5047100;28;20046;-71
2023/01/28 09:32:52;;;;;;;20.23;11.07;;;;;;;1.25;96.68;102701.00;5046024;28;20025;-71
2023/01/28 09:35:18;;;;;;;24.37;10.13;;;;;;;1.04;96.78;102691.03;5041349;28;20020;-71
2023/01/28 09:37:45;;;;;;;18.33;9.87;;;;;;;1.19;96.75;102701.19;5054909;28;20051;-72
2023/01/28 09:40:17;;;;;;;17.80;8.60;;;;;;;1.02;96.95;102703.56;5051353;28;20478;-72
2023/01/28 09:43:15;;;;;;;18.97;7.90;;;;;;;1.01;95.64;102709.81;5053251;28;20521;-73
2023/01/28 09:45:49;;;;;;;15.13;8.00;;;;;;;1.13;94.78;102708.53;5041765;28;20514;-72
2023/01/28 09:48:20;;;;;;;19.13;7.93;;;;;;;0.87;95.75;102698.75;5044037;28;20032;-72
2023/01/28 09:50:49;;;;;;;14.53;7.30;;;;;;;0.98;94.90;102701.94;5046621;28;20044;-72
2023/01/28 09:53:21;;;;;;;25.33;7.93;;;;;;;1.28;94.18;102706.19;5036182;28;20036;-72
2023/01/28 09:56:01;;;;;;;17.83;8.37;;;;;;;1.62;92.86;102687.19;5038594;28;20064;-72
2023/01/28 09:58:30;;;;;;;18.07;8.43;;;;;;;1.32;92.34;102683.84;5045606;28;20024;-72
2023/01/28 10:01:20;;;;;;;11.10;6.57;;;;;;;1.71;91.73;102683.31;5053529;28;20037;-71
2023/01/28 10:04:16;;;;;;;17.83;7.57;;;;;;;1.97;90.61;102684.16;5056001;28;20032;-72
2023/01/28 10:06:55;;;;;;;18.37;6.67;;;;;;;1.57;91.64;102672.28;5043341;28;20405;-72
2023/01/28 10:09:51;;;;;;;14.23;7.90;;;;;;;1.39;91.89;102665.81;5053767;28;20032;-71
2023/01/28 10:12:37;;;;;;;13.60;7.43;;;;;;;1.82;91.27;102669.53;5050890;28;20048;-72
2023/01/28 10:15:19;;;;;;;14.67;7.60;;;;;;;2.19;90.94;102663.66;5055428;28;20024;-72
2023/01/28 10:17:48;;;;;;;16.70;8.63;;;;;;;2.09;89.09;102662.31;5060154;28;20051;-71
2023/01/28 10:20:53;;;;;;;18.10;7.70;;;;;;;2.28;90.15;102654.41;5061836;28;20028;-71
2023/01/28 10:23:46;;;;;;;19.67;7.20;;;;;;;2.62;88.41;102652.13;5043723;28;20040;-72
2023/01/28 10:26:22;;;;;;;13.38;6.93;;;;;;;2.72;87.47;102657.94;5049340;28;20029;-72
2023/01/28 10:28:53;;;;;;;15.00;7.30;;;;;;;2.69;87.22;102658.09;5059043;28;20028;-71
2023/01/28 10:31:21;;;;;;;13.77;6.93;;;;;;;2.69;86.66;102658.09;5060715;28;20031;-70
2023/01/28 10:33:50;;;;;;;10.70;6.85;;;;;;;2.57;86.77;102647.91;5062028;28;20027;-69
2023/01/28 10:36:17;;;;;;;16.42;6.63;;;;;;;2.76;88.02;102632.81;5058694;28;20039;-70
2023/01/28 10:38:43;;;;;;;14.52;6.47;;;;;;;3.39;86.63;102630.97;5064796;28;20052;-70
2023/01/28 10:41:12;;;;;;;13.02;6.20;;;;;;;2.59;86.40;102630.84;5060191;28;20032;-71
2023/01/28 10:43:41;;;;;;;15.10;8.85;;;;;;;2.79;86.99;102623.78;5063742;28;20112;-69
2023/01/28 10:46:26;;;;;;;20.35;7.28;;;;;;;2.52;89.08;102628.50;5060234;28;20511;-71
2023/01/28 10:48:58;;;;;;;11.10;6.28;;;;;;;1.90;88.85;102630.94;5061803;28;20031;-70
2023/01/28 10:51:34;;;;;;;16.80;7.10;;;;;;;1.99;89.26;102615.50;5074155;28;20036;-71
2023/01/28 10:54:03;;;;;;;18.67;6.95;;;;;;;2.58;89.30;102596.16;5060346;28;20028;-71
2023/01/28 10:56:34;;;;;;;18.83;7.55;;;;;;;2.28;88.87;102599.19;5050261;28;20037;-71
2023/01/28 10:59:03;;;;;;;;;;;;;;;2.37;88.94;102598.78;5052461;28;20113;-72
2023/01/28 11:01:39;;;;;;;13.55;6.80;;;;;;;2.32;87.98;102600.78;5051987;28;19916;-71
2023/01/28 11:04:05;;;;;;;16.55;7.75;;;;;;;2.24;89.84;102576.16;5046040;28;20035;-72
2023/01/28 11:06:31;;;;;;;13.13;6.82;;;;;;;2.13;89.58;102584.63;5036277;28;20032;-74
2023/01/28 11:08:57;;;;;;;15.97;7.23;;;;;;;2.31;89.63;102580.31;5045869;28;20033;-72
2023/01/28 11:11:28;;;;;;;17.95;8.48;;;;;;;2.56;88.60;102595.34;5041781;28;20571;-72
2023/01/28 11:13:57;;;;;;;22.45;9.43;;;;;;;2.00;90.37;102577.16;5048400;28;20024;-72
2023/01/28 11:16:25;;;;;;;14.83;8.40;;;;;;;1.83;91.79;102581.38;5042102;28;20033;-72
2023/01/28 11:19:01;;;;;;;17.67;9.50;;;;;;;1.87;91.18;102587.44;5040272;28;20082;-72
2023/01/28 11:21:30;;;;;;;12.97;8.17;;;;;;;2.00;92.23;102566.47;5046162;28;20048;-72
2023/01/28 11:24:01;;;;;;;26.87;11.33;;;;;;;2.29;91.12;102568.84;5046525;28;20485;-71
2023/01/28 11:26:34;;;;;;;16.83;9.73;;;;;;;2.44;90.27;102568.19;5042255;28;20036;-72
2023/01/28 11:31:41;;;;;;;18.02;8.48;;;;;;;2.39;90.30;102538.09;5075888;23;20489;-75
2023/01/28 11:34:07;;;;;;;18.08;8.73;;;;;;;2.65;90.07;102520.94;5017805;28;20028;-76
2023/01/28 11:36:34;;;;;;;20.98;9.80;;;;;;;2.76;88.97;102536.53;5025114;28;20397;-75
2023/01/28 11:39:18;;;;;;;25.95;9.30;;;;;;;2.34;90.70;102545.44;5013068;28;20033;-77
2023/01/28 11:41:46;;;;;;;13.65;8.88;;;;;;;2.92;88.41;102544.75;5019030;28;20064;-74
2023/01/28 11:44:18;;;;;;;16.25;8.40;;;;;;;2.75;88.27;102537.47;5038866;28;20087;-75
2023/01/28 11:46:58;;;;;;;14.63;8.18;;;;;;;3.32;87.93;102535.78;5030301;28;20044;-75
2023/01/28 11:49:53;;;;;;;16.73;9.00;;;;;;;2.85;88.13;102525.41;5033946;28;20022;-76
2023/01/28 11:52:25;;;;;;;19.65;7.85;;;;;;;2.89;88.63;102529.69;5000808;28;20055;-75
2023/01/28 11:55:23;;;;;;;17.77;9.15;;;;;;;2.96;87.54;102517.78;5042441;28;20070;-75
2023/01/28 11:58:04;;;;;;;15.75;8.35;;;;;;;3.03;88.43;102513.03;5027350;28;20136;-75
2023/01/28 12:00:35;;;;;;;21.05;9.95;;;;;;;2.99;88.61;102533.69;5027897;28;20045;-75
2023/01/28 12:03:16;;;;;;;18.48;8.43;;;;;;;2.51;90.07;102526.03;5036447;28;20041;-77